createdAt,value
2023-05-23T00:01:07.305Z,60.65
2023-05-23T00:03:34.820Z,60.63
2023-05-23T00:06:02.441Z,60.44
2023-05-23T00:08:29.334Z,60.70
2023-05-23T00:10:56.104Z,60.71
2023-05-23T00:13:23.025Z,61.41
2023-05-23T00:15:49.829Z,61.29
2023-05-23T00:18:16.743Z,61.69
2023-05-23T00:20:43.908Z,61.95
2023-05-23T00:23:14.919Z,62.02
2023-05-23T00:25:42.499Z,62.09
2023-05-23T00:28:09.354Z,61.81
2023-05-23T00:30:36.232Z,61.88
2023-05-23T00:33:03.829Z,61.95
2023-05-23T00:35:30.714Z,62.33
2023-05-23T00:37:57.483Z,61.85
2023-05-23T00:40:24.981Z,61.86
2023-05-23T00:42:51.755Z,61.96
2023-05-23T00:45:18.617Z,62.22
2023-05-23T00:47:47.838Z,62.08
2023-05-23T00:50:15.942Z,62.24
2023-05-23T00:52:45.154Z,62.12
2023-05-23T00:55:15.856Z,62.35
2023-05-23T00:57:44.453Z,62.55
2023-05-23T01:00:15.649Z,62.26
2023-05-23T01:02:51.389Z,62.57
2023-05-23T01:05:18.679Z,62.84
2023-05-23T01:07:47.280Z,62.31
2023-05-23T01:10:15.729Z,62.53
2023-05-23T01:12:58.525Z,62.45
2023-05-23T01:15:44.060Z,62.63
2023-05-23T01:18:17.963Z,62.63
2023-05-23T01:20:54.588Z,62.61
2023-05-23T01:24:08.921Z,62.58
2023-05-23T01:26:54.039Z,62.80
2023-05-23T01:29:32.364Z,62.94
2023-05-23T01:32:01.217Z,62.77
2023-05-23T01:34:29.277Z,63.29
2023-05-23T01:36:58.864Z,63.23
2023-05-23T01:39:26.383Z,63.09
2023-05-23T01:41:54.889Z,63.36
2023-05-23T01:44:22.561Z,63.40
2023-05-23T01:46:49.416Z,63.75
2023-05-23T01:49:17.983Z,63.23
2023-05-23T01:51:46.045Z,63.28
2023-05-23T01:54:14.532Z,63.02
2023-05-23T01:56:43.150Z,63.59
2023-05-23T01:59:10.407Z,63.76
2023-05-23T02:01:38.819Z,63.51
2023-05-23T02:04:05.957Z,63.93
2023-05-23T02:06:33.212Z,63.42
2023-05-23T02:09:00.220Z,63.93
2023-05-23T02:11:27.219Z,63.61
2023-05-23T02:13:54.087Z,63.68
2023-05-23T02:16:21.750Z,63.49
2023-05-23T02:18:49.402Z,63.68
2023-05-23T02:21:16.529Z,63.44
2023-05-23T02:23:43.546Z,63.37
2023-05-23T02:26:10.416Z,63.46
2023-05-23T02:28:37.381Z,63.67
2023-05-23T02:31:04.435Z,63.91
2023-05-23T02:33:32.583Z,63.78
2023-05-23T02:36:01.606Z,63.95
2023-05-23T02:38:29.569Z,63.77
2023-05-23T02:40:57.803Z,63.87
2023-05-23T02:43:24.573Z,64.05
2023-05-23T02:45:51.903Z,64.02
2023-05-23T02:48:18.972Z,64.15
2023-05-23T02:50:45.905Z,64.09
2023-05-23T02:53:12.730Z,64.17
2023-05-23T02:55:39.784Z,63.56
2023-05-23T02:58:07.141Z,63.36
2023-05-23T03:00:34.214Z,63.74
2023-05-23T03:03:01.838Z,63.67
2023-05-23T03:05:28.718Z,63.97
2023-05-23T03:07:55.617Z,64.03
2023-05-23T03:10:22.470Z,63.58
2023-05-23T03:12:49.287Z,63.91
2023-05-23T03:15:17.220Z,63.60
2023-05-23T03:17:44.848Z,63.69
2023-05-23T03:20:12.117Z,63.72
2023-05-23T03:22:39.469Z,63.59
2023-05-23T03:25:06.867Z,63.14
2023-05-23T03:27:33.626Z,63.46
2023-05-23T03:30:01.224Z,63.55
2023-05-23T03:32:28.201Z,63.02
2023-05-23T03:34:55.021Z,62.93
2023-05-23T03:37:22.027Z,63.03
2023-05-23T03:39:48.801Z,62.86
2023-05-23T03:42:15.720Z,63.28
2023-05-23T03:44:42.524Z,62.94
2023-05-23T03:47:09.495Z,62.67
2023-05-23T03:49:38.939Z,62.62
2023-05-23T03:52:05.818Z,62.76
2023-05-23T03:54:32.568Z,62.63
2023-05-23T03:56:59.328Z,62.58
2023-05-23T03:59:26.472Z,62.54
2023-05-23T04:01:53.499Z,62.04
2023-05-23T04:04:21.124Z,62.34
2023-05-23T04:06:49.213Z,61.69
2023-05-23T04:09:16.173Z,61.93
2023-05-23T04:11:45.253Z,61.81
2023-05-23T04:14:12.504Z,61.14
2023-05-23T04:16:42.003Z,61.43
2023-05-23T04:19:09.150Z,61.32
2023-05-23T04:21:36.239Z,61.81
2023-05-23T04:24:15.091Z,60.97
2023-05-23T04:26:43.509Z,61.09
2023-05-23T04:29:12.307Z,60.91
2023-05-23T04:31:39.488Z,60.76
2023-05-23T04:34:08.266Z,60.48
2023-05-23T04:36:38.735Z,60.31
2023-05-23T04:39:08.030Z,60.49
2023-05-23T04:41:40.270Z,60.50
2023-05-23T04:44:30.342Z,60.26
2023-05-23T04:47:21.250Z,59.84
2023-05-23T04:50:08.672Z,60.38
2023-05-23T04:52:35.757Z,60.34
2023-05-23T04:55:02.884Z,59.98
2023-05-23T04:57:29.747Z,59.74
2023-05-23T04:59:57.476Z,59.82
2023-05-23T05:02:27.122Z,59.39
2023-05-23T05:04:54.086Z,59.50
2023-05-23T05:07:21.033Z,59.37
2023-05-23T05:09:48.042Z,59.22
2023-05-23T05:12:14.833Z,58.65
2023-05-23T05:14:41.878Z,58.84
2023-05-23T05:17:09.467Z,58.23
2023-05-23T05:19:46.470Z,58.35
2023-05-23T05:22:15.225Z,57.63
2023-05-23T05:24:42.559Z,57.39
2023-05-23T05:27:11.653Z,57.11
2023-05-23T05:29:38.423Z,57.17
2023-05-23T05:32:09.012Z,56.87
2023-05-23T05:34:37.904Z,55.95
2023-05-23T05:37:05.282Z,55.24
2023-05-23T05:39:32.320Z,54.58
2023-05-23T05:42:01.307Z,54.64
2023-05-23T05:44:28.195Z,54.09
2023-05-23T05:46:55.783Z,53.84
2023-05-23T05:49:22.766Z,53.53
2023-05-23T05:51:50.268Z,53.35
2023-05-23T05:54:19.184Z,52.96
2023-05-23T05:56:47.728Z,52.58
2023-05-23T05:59:15.845Z,51.76
2023-05-23T06:01:42.751Z,51.31
2023-05-23T06:04:11.426Z,51.24
2023-05-23T06:06:38.422Z,51.38
2023-05-23T06:09:05.533Z,51.00
2023-05-23T06:11:32.643Z,51.13
2023-05-23T06:14:00.046Z,50.77
2023-05-23T06:16:27.145Z,51.04
2023-05-23T06:18:55.145Z,51.01
2023-05-23T06:21:23.585Z,50.76
2023-05-23T06:23:52.375Z,50.85
2023-05-23T06:26:19.260Z,49.98
2023-05-23T06:28:46.385Z,49.53
2023-05-23T06:31:13.309Z,49.17
2023-05-23T06:33:40.348Z,48.85
2023-05-23T06:36:07.531Z,49.26
2023-05-23T06:38:34.227Z,49.29
2023-05-23T06:41:03.819Z,49.56
2023-05-23T06:43:31.253Z,49.45
2023-05-23T06:46:12.900Z,49.41
2023-05-23T06:48:39.828Z,49.85
2023-05-23T06:51:06.772Z,49.75
2023-05-23T06:53:34.386Z,49.61
2023-05-23T06:56:01.592Z,49.73
2023-05-23T06:58:30.500Z,49.36
2023-05-23T07:01:00.911Z,49.70
2023-05-23T07:03:31.713Z,50.05
2023-05-23T07:06:05.359Z,50.34
2023-05-23T07:08:32.389Z,49.65
2023-05-23T07:11:00.669Z,49.92
2023-05-23T07:13:38.526Z,49.76
2023-05-23T07:16:06.342Z,49.84
2023-05-23T07:18:38.431Z,50.17
2023-05-23T07:21:05.837Z,49.98
2023-05-23T07:23:34.714Z,50.30
2023-05-23T07:26:03.318Z,50.50
2023-05-23T07:28:51.407Z,50.16
2023-05-23T07:31:19.012Z,50.54
2023-05-23T07:33:46.599Z,49.87
2023-05-23T07:36:20.104Z,48.62
2023-05-23T07:38:49.810Z,46.91
2023-05-23T07:41:17.052Z,44.91
2023-05-23T07:43:44.081Z,44.12
2023-05-23T07:46:13.382Z,43.99
2023-05-23T07:48:40.707Z,44.04
2023-05-23T07:51:07.736Z,43.68
2023-05-23T07:53:35.159Z,43.36
2023-05-23T07:56:03.831Z,42.71
2023-05-23T07:58:36.052Z,41.56
2023-05-23T08:01:03.702Z,42.08
2023-05-23T08:03:49.167Z,42.35
2023-05-23T08:06:22.680Z,42.77
2023-05-23T08:08:49.755Z,43.02
2023-05-23T08:11:17.115Z,42.90
2023-05-23T08:13:49.283Z,42.39
2023-05-23T08:16:38.884Z,42.55
2023-05-23T08:19:17.373Z,42.81
2023-05-23T08:21:44.813Z,42.35
2023-05-23T08:24:15.146Z,42.08
2023-05-23T08:26:44.517Z,41.91
2023-05-23T08:29:13.929Z,42.13
2023-05-23T08:31:42.430Z,41.82
2023-05-23T08:34:11.634Z,41.65
2023-05-23T08:36:40.083Z,41.97
2023-05-23T08:39:11.762Z,42.59
2023-05-23T08:42:07.627Z,42.45
2023-05-23T08:44:34.912Z,41.25
2023-05-23T08:47:07.831Z,38.60
2023-05-23T08:49:59.790Z,29.82
2023-05-23T08:52:30.176Z,25.68
2023-05-23T08:55:00.876Z,22.00
2023-05-23T08:57:30.538Z,19.70
2023-05-23T09:00:11.161Z,18.60
2023-05-23T09:02:39.198Z,19.42
2023-05-23T09:05:20.850Z,22.15
2023-05-23T09:07:49.418Z,19.43
2023-05-23T09:10:20.384Z,16.98
2023-05-23T09:12:47.520Z,15.22
2023-05-23T09:15:14.854Z,16.69
2023-05-23T09:17:41.899Z,16.06
2023-05-23T09:20:15.246Z,19.54
2023-05-23T09:22:49.441Z,22.08
2023-05-23T09:25:18.006Z,22.03
2023-05-23T09:27:48.071Z,20.65
2023-05-23T09:30:16.011Z,22.12
2023-05-23T09:32:44.757Z,24.97
2023-05-23T09:35:16.032Z,27.39
2023-05-23T09:37:47.405Z,22.39
2023-05-23T09:40:15.388Z,19.93
2023-05-23T09:42:52.992Z,17.13
2023-05-23T09:45:19.971Z,19.49
2023-05-23T09:47:53.895Z,18.94
2023-05-23T09:50:21.762Z,19.11
2023-05-23T09:52:49.585Z,19.04
2023-05-23T09:55:16.684Z,18.54
2023-05-23T09:57:44.330Z,17.50
2023-05-23T10:00:13.937Z,19.18
2023-05-23T10:03:10.765Z,21.86
2023-05-23T10:05:47.755Z,24.02
2023-05-23T10:08:19.188Z,26.53
2023-05-23T10:11:14.735Z,28.53
2023-05-23T10:13:44.922Z,29.89
2023-05-23T10:16:14.704Z,30.92
2023-05-23T10:18:45.786Z,33.06
2023-05-23T10:21:15.774Z,34.00
2023-05-23T10:23:47.111Z,35.43
2023-05-23T10:26:14.153Z,35.24
2023-05-23T10:28:42.270Z,36.16
2023-05-23T10:31:10.641Z,35.31
2023-05-23T10:33:47.651Z,35.32
2023-05-23T10:36:45.194Z,34.69
2023-05-23T10:39:28.350Z,34.20
2023-05-23T10:42:08.980Z,33.37
2023-05-23T10:44:36.848Z,32.16
2023-05-23T10:47:04.710Z,30.76
2023-05-23T10:49:44.514Z,29.97
2023-05-23T10:52:14.127Z,28.98
2023-05-23T10:54:46.839Z,28.62
2023-05-23T10:57:19.480Z,29.63
2023-05-23T10:59:47.514Z,30.70
2023-05-23T11:02:19.523Z,31.74
2023-05-23T11:04:49.023Z,32.08
2023-05-23T11:07:32.804Z,33.14
2023-05-23T11:10:11.300Z,33.76
2023-05-23T11:12:40.979Z,34.14
2023-05-23T11:15:28.135Z,34.28
2023-05-23T11:17:57.536Z,34.99
2023-05-23T11:20:28.659Z,34.89
2023-05-23T11:23:00.725Z,35.07
2023-05-23T11:25:57.224Z,34.67
2023-05-23T11:28:24.533Z,34.81
2023-05-23T11:30:51.535Z,34.42
2023-05-23T11:33:19.133Z,33.52
2023-05-23T11:35:48.775Z,31.51
2023-05-23T11:38:17.035Z,29.63
2023-05-23T11:40:46.431Z,29.25
2023-05-23T11:43:16.848Z,29.71
2023-05-23T11:45:44.176Z,31.08
2023-05-23T11:48:16.620Z,32.14
2023-05-23T11:50:52.321Z,34.32
2023-05-23T11:53:21.915Z,34.71
2023-05-23T11:55:55.828Z,36.01
2023-05-23T11:58:26.149Z,36.85
2023-05-23T12:00:55.345Z,37.23
2023-05-23T12:03:22.786Z,36.80
2023-05-23T12:05:49.808Z,37.21
2023-05-23T12:08:17.866Z,36.60
2023-05-23T12:10:57.053Z,36.10
2023-05-23T12:13:29.398Z,35.09
2023-05-23T12:16:00.765Z,34.71
2023-05-23T12:18:29.853Z,33.97
2023-05-23T12:21:01.358Z,32.93
2023-05-23T12:23:28.756Z,32.28
2023-05-23T12:25:57.102Z,32.28
2023-05-23T12:28:37.464Z,31.93
2023-05-23T12:31:22.393Z,31.81
2023-05-23T12:33:50.210Z,31.78
2023-05-23T12:36:25.173Z,32.40
2023-05-23T12:38:52.254Z,32.10
2023-05-23T12:41:20.749Z,32.36
2023-05-23T12:43:55.474Z,32.52
2023-05-23T12:46:25.168Z,32.98
2023-05-23T12:48:53.255Z,33.80
2023-05-23T12:51:21.469Z,33.61
2023-05-23T12:53:50.096Z,32.79
2023-05-23T12:56:21.046Z,32.96
2023-05-23T12:58:48.486Z,33.11
2023-05-23T13:01:15.341Z,32.77
2023-05-23T13:03:45.070Z,32.48
2023-05-23T13:06:14.983Z,32.19
2023-05-23T13:08:42.756Z,31.93
2023-05-23T13:11:09.654Z,33.39
2023-05-23T13:13:39.133Z,33.30
2023-05-23T13:16:07.184Z,33.84
2023-05-23T13:18:34.001Z,33.41
2023-05-23T13:21:00.925Z,33.18
2023-05-23T13:23:28.614Z,33.21
2023-05-23T13:25:58.073Z,34.24
2023-05-23T13:28:25.971Z,34.54
2023-05-23T13:30:53.025Z,34.92
2023-05-23T13:33:25.877Z,34.79
2023-05-23T13:35:54.653Z,35.04
2023-05-23T13:38:22.742Z,34.44
2023-05-23T13:40:51.908Z,33.98
2023-05-23T13:43:19.047Z,34.22
2023-05-23T13:45:47.358Z,34.17
2023-05-23T13:48:14.554Z,34.25
2023-05-23T13:50:43.289Z,34.35
2023-05-23T13:53:15.567Z,34.83
2023-05-23T13:55:43.846Z,34.13
2023-05-23T13:58:13.866Z,33.49
2023-05-23T14:00:41.500Z,33.59
2023-05-23T14:03:11.520Z,33.21
2023-05-23T14:05:39.378Z,33.57
2023-05-23T14:08:07.067Z,33.02
2023-05-23T14:10:34.149Z,32.81
2023-05-23T14:13:01.532Z,33.19
2023-05-23T14:15:28.631Z,32.86
2023-05-23T14:17:57.341Z,32.88
2023-05-23T14:20:25.123Z,32.97
2023-05-23T14:22:55.285Z,32.06
2023-05-23T14:25:22.708Z,31.85
2023-05-23T14:27:50.029Z,31.80
2023-05-23T14:30:17.378Z,32.50
2023-05-23T14:32:44.707Z,32.68
2023-05-23T14:35:14.525Z,33.44
2023-05-23T14:37:44.769Z,32.79
2023-05-23T14:40:13.451Z,33.65
2023-05-23T14:42:40.721Z,33.66
2023-05-23T14:45:07.922Z,34.05
2023-05-23T14:47:35.858Z,33.72
2023-05-23T14:50:03.600Z,34.67
2023-05-23T14:52:31.030Z,35.17
2023-05-23T14:54:58.497Z,35.48
2023-05-23T14:57:25.540Z,36.19
2023-05-23T14:59:53.063Z,35.77
2023-05-23T15:02:20.918Z,35.00
2023-05-23T15:04:48.984Z,34.11
2023-05-23T15:07:19.688Z,34.03
2023-05-23T15:09:48.194Z,34.40
2023-05-23T15:12:18.065Z,34.89
2023-05-23T15:14:48.806Z,35.45
2023-05-23T15:17:20.390Z,35.30
2023-05-23T15:19:48.124Z,35.32
2023-05-23T15:22:33.734Z,35.48
2023-05-23T15:25:08.814Z,35.95
2023-05-23T15:27:37.756Z,36.09
2023-05-23T15:30:05.552Z,36.46
2023-05-23T15:32:33.436Z,36.58
2023-05-23T15:35:00.653Z,36.65
2023-05-23T15:37:27.749Z,36.80
2023-05-23T15:39:57.721Z,37.03
2023-05-23T15:42:25.712Z,37.32
2023-05-23T15:44:53.064Z,36.98
2023-05-23T15:47:20.938Z,37.18
2023-05-23T15:49:48.105Z,37.79
2023-05-23T15:52:15.466Z,37.67
2023-05-23T15:54:42.290Z,38.67
2023-05-23T15:57:11.881Z,39.14
2023-05-23T15:59:39.604Z,39.57
2023-05-23T16:02:06.927Z,39.40
2023-05-23T16:04:36.139Z,40.33
2023-05-23T16:07:04.134Z,40.78
2023-05-23T16:09:31.713Z,41.03
2023-05-23T16:11:59.128Z,40.55
2023-05-23T16:14:26.138Z,40.67
2023-05-23T16:16:53.076Z,40.77
2023-05-23T16:19:20.291Z,40.81
2023-05-23T16:24:39.979Z,40.82
2023-05-23T16:27:33.253Z,40.63
2023-05-23T16:30:00.511Z,40.49
2023-05-23T16:32:35.569Z,40.42
2023-05-23T16:35:03.742Z,40.20
2023-05-23T16:37:34.757Z,40.49
2023-05-23T16:40:02.691Z,40.32
2023-05-23T16:42:33.561Z,40.02
2023-05-23T16:45:05.557Z,39.97
2023-05-23T16:47:34.131Z,39.95
2023-05-23T16:50:14.007Z,39.49
2023-05-23T16:52:41.641Z,39.44
2023-05-23T16:55:11.083Z,39.11
2023-05-23T16:57:40.421Z,39.37
2023-05-23T17:00:14.404Z,39.29
2023-05-23T17:02:55.719Z,39.66
2023-05-23T17:05:22.908Z,40.02
2023-05-23T17:07:50.461Z,39.81
2023-05-23T17:10:20.345Z,40.06
2023-05-23T17:12:47.617Z,40.11
2023-05-23T17:15:17.655Z,40.37
2023-05-23T17:17:54.032Z,40.03
2023-05-23T17:20:25.199Z,39.46
2023-05-23T17:22:59.911Z,39.37
2023-05-23T17:25:27.070Z,39.52
2023-05-23T17:27:55.514Z,39.08
2023-05-23T17:30:23.652Z,39.54
2023-05-23T17:35:49.936Z,39.82
2023-05-23T17:38:29.127Z,39.94
2023-05-23T17:41:06.394Z,40.48
2023-05-23T17:43:35.574Z,40.58
2023-05-23T17:46:02.806Z,41.19
2023-05-23T17:48:45.578Z,41.41
2023-05-23T17:51:15.357Z,41.02
2023-05-23T17:53:57.249Z,41.26
2023-05-23T17:56:28.496Z,41.66
2023-05-23T17:58:58.233Z,41.82
2023-05-23T18:01:27.845Z,41.58
2023-05-23T18:03:55.636Z,41.75
2023-05-23T18:06:24.206Z,41.72
2023-05-23T18:09:03.501Z,41.35
2023-05-23T18:11:31.330Z,41.63
2023-05-23T18:14:00.851Z,41.07
2023-05-23T18:16:30.641Z,41.06
2023-05-23T18:19:02.063Z,40.44
2023-05-23T18:21:38.654Z,40.57
2023-05-23T18:24:06.751Z,40.72
2023-05-23T18:26:34.185Z,40.61
2023-05-23T18:29:04.709Z,40.51
2023-05-23T18:31:35.868Z,40.64
2023-05-23T18:34:03.898Z,40.06
2023-05-23T18:36:31.601Z,39.92
2023-05-23T18:38:58.718Z,40.08
2023-05-23T18:41:28.462Z,40.05
2023-05-23T18:43:55.513Z,40.01
2023-05-23T18:46:24.328Z,39.12
2023-05-23T18:48:53.019Z,39.34
2023-05-23T18:51:19.854Z,39.42
2023-05-23T18:53:46.702Z,39.18
2023-05-23T18:56:13.524Z,39.32
2023-05-23T18:58:40.779Z,39.41
2023-05-23T19:01:08.323Z,39.21
2023-05-23T19:03:37.206Z,39.24
2023-05-23T19:06:06.056Z,39.38
2023-05-23T19:08:33.608Z,38.88
2023-05-23T19:11:00.988Z,39.07
2023-05-23T19:13:59.821Z,39.11
2023-05-23T19:19:37.920Z,39.56
2023-05-23T19:22:05.289Z,39.31
2023-05-23T19:24:43.021Z,39.13
2023-05-23T19:27:17.439Z,39.33
2023-05-23T19:29:53.343Z,39.25
2023-05-23T19:32:20.938Z,38.69
2023-05-23T19:34:47.902Z,39.32
2023-05-23T19:37:15.242Z,39.37
2023-05-23T19:39:45.817Z,39.44
2023-05-23T19:42:13.457Z,39.86
2023-05-23T19:44:42.284Z,40.07
2023-05-23T19:47:09.198Z,40.12
2023-05-23T19:49:36.663Z,40.29
2023-05-23T19:52:03.701Z,40.81
2023-05-23T19:54:30.717Z,40.48
2023-05-23T19:56:57.610Z,41.03
2023-05-23T19:59:24.552Z,41.12
2023-05-23T20:01:51.524Z,41.33
2023-05-23T20:04:18.448Z,41.40
2023-05-23T20:06:45.291Z,41.71
2023-05-23T20:09:13.071Z,41.63
2023-05-23T20:11:39.942Z,42.06
2023-05-23T20:14:06.958Z,42.03
2023-05-23T20:16:34.096Z,42.03
2023-05-23T20:19:01.374Z,42.03
2023-05-23T20:21:30.648Z,42.05
2023-05-23T20:23:57.966Z,41.88
2023-05-23T20:26:29.010Z,42.07
2023-05-23T20:28:59.907Z,41.88
2023-05-23T20:31:26.990Z,41.95
2023-05-23T20:33:54.188Z,41.65
2023-05-23T20:36:21.233Z,41.63
2023-05-23T20:38:48.483Z,42.00
2023-05-23T20:41:16.511Z,42.38
2023-05-23T20:43:44.957Z,42.29
2023-05-23T20:46:13.986Z,42.12
2023-05-23T20:48:44.013Z,42.75
2023-05-23T20:51:12.026Z,42.68
2023-05-23T20:53:40.981Z,43.09
2023-05-23T20:56:10.546Z,42.77
2023-05-23T20:58:38.619Z,43.07
2023-05-23T21:01:18.017Z,42.51
2023-05-23T21:03:50.719Z,42.77
2023-05-23T21:06:18.459Z,42.63
2023-05-23T21:08:45.513Z,42.45
2023-05-23T21:11:14.267Z,42.44
2023-05-23T21:13:47.521Z,42.32
2023-05-23T21:16:23.054Z,42.61
2023-05-23T21:18:53.162Z,42.65
2023-05-23T21:21:20.578Z,42.64
2023-05-23T21:23:47.492Z,42.63
2023-05-23T21:26:14.604Z,42.71
2023-05-23T21:28:43.016Z,42.78
2023-05-23T21:31:10.451Z,42.76
2023-05-23T21:33:37.329Z,42.63
2023-05-23T21:36:04.195Z,43.03
2023-05-23T21:38:31.242Z,43.17
2023-05-23T21:40:58.175Z,42.98
2023-05-23T21:43:25.161Z,43.23
2023-05-23T21:45:52.868Z,42.94
2023-05-23T21:48:19.766Z,42.78
2023-05-23T21:50:46.644Z,42.92
2023-05-23T21:53:13.489Z,43.15
2023-05-23T21:55:40.509Z,43.21
2023-05-23T21:58:07.480Z,43.26
2023-05-23T22:00:34.209Z,43.25
2023-05-23T22:03:01.269Z,43.60
2023-05-23T22:05:28.278Z,43.74
2023-05-23T22:07:55.139Z,43.92
2023-05-23T22:10:22.020Z,43.72
2023-05-23T22:12:48.962Z,43.98
2023-05-23T22:15:16.132Z,43.77
2023-05-23T22:17:43.359Z,44.08
2023-05-23T22:20:13.242Z,44.36
2023-05-23T22:22:40.824Z,44.74
2023-05-23T22:25:11.412Z,44.33
2023-05-23T22:27:38.662Z,44.28
2023-05-23T22:30:06.679Z,44.47
2023-05-23T22:32:38.703Z,44.97
2023-05-23T22:35:06.316Z,44.77
2023-05-23T22:37:33.544Z,45.01
2023-05-23T22:40:00.828Z,44.84
2023-05-23T22:42:27.871Z,45.24
2023-05-23T22:44:57.989Z,45.14
2023-05-23T22:47:25.374Z,44.68
2023-05-23T22:49:56.649Z,45.21
2023-05-23T22:52:23.968Z,44.85
2023-05-23T22:54:51.603Z,44.78
2023-05-23T22:57:24.239Z,44.50
2023-05-23T22:59:51.154Z,44.33
2023-05-23T23:02:20.528Z,44.31
2023-05-23T23:04:51.780Z,44.32
2023-05-23T23:07:18.931Z,44.40
2023-05-23T23:09:46.488Z,44.45
2023-05-23T23:12:13.720Z,44.52
2023-05-23T23:14:40.687Z,44.04
2023-05-23T23:17:07.785Z,44.69
2023-05-23T23:19:35.728Z,44.81
2023-05-23T23:22:03.548Z,45.13
2023-05-23T23:24:30.882Z,45.04
2023-05-23T23:26:57.716Z,45.28
2023-05-23T23:29:24.696Z,45.41
2023-05-23T23:31:51.748Z,45.23
2023-05-23T23:34:18.812Z,45.29
2023-05-23T23:36:45.882Z,45.68
2023-05-23T23:39:12.857Z,45.67
2023-05-23T23:41:39.922Z,45.66
2023-05-23T23:44:07.396Z,45.68
2023-05-23T23:46:36.986Z,45.35
2023-05-23T23:49:04.295Z,46.04
2023-05-23T23:51:33.851Z,45.68
2023-05-23T23:54:00.806Z,45.46
2023-05-23T23:56:27.657Z,45.81
2023-05-23T23:58:54.471Z,46.01
